Dixie Valley, Nevada
Current Conditions -  °F | °C
As of 7:56 AM on Saturday 20 Dec 2014 (Local Time) from KNFL Reporting Station
Overcast Overcast  
Wind Chill: 38°   Ceiling: 6000
Heat Index: 41°   Visibility: 10mi
Dew Point: 35°   Wind: 5mph
Humidity: 79%   Direction: 160°SSE
Pressure: 30.11"   Gusts: NA
Location:  39.5809°N, 118.333°W
Report Text: KNFL 201556Z AUTO 16004KT 10SM BKN060 OVC085 05/02 A3011 RMK AO2 RAE00 SLP163 P0000 T00500017
Loading
Personal Weather Stations






























Interactive Weather Map New forecast layout! Learn more

10-Day Weather Forecast

Advertisements
Track Severe Weather on mobile